createdAt,value
2018-12-30T00:00:53.153Z,16.17
2018-12-30T00:03:22.185Z,17.63
2018-12-30T00:05:51.562Z,17.70
2018-12-30T00:08:20.619Z,18.07
2018-12-30T00:10:49.535Z,21.67
2018-12-30T00:13:18.207Z,14.70
2018-12-30T00:15:46.917Z,15.53
2018-12-30T00:18:15.804Z,22.10
2018-12-30T00:20:44.865Z,18.53
2018-12-30T00:23:14.206Z,16.47
2018-12-30T00:25:43.062Z,21.97
2018-12-30T00:28:11.740Z,14.93
2018-12-30T00:30:40.348Z,16.30
2018-12-30T00:33:09.027Z,21.57
2018-12-30T00:35:37.817Z,20.67
2018-12-30T00:38:06.752Z,18.97
2018-12-30T00:40:35.394Z,20.13
2018-12-30T00:43:04.330Z,16.83
2018-12-30T00:45:32.950Z,18.30
2018-12-30T00:48:01.570Z,15.80
2018-12-30T00:50:30.154Z,21.57
2018-12-30T00:52:58.836Z,17.53
2018-12-30T00:55:27.478Z,18.17
2018-12-30T00:57:56.084Z,15.40
2018-12-30T01:00:24.838Z,14.53
2018-12-30T01:02:53.413Z,18.70
2018-12-30T01:05:22.200Z,16.63
2018-12-30T01:07:50.851Z,20.27
2018-12-30T01:10:19.538Z,15.50
2018-12-30T01:12:48.251Z,18.90
2018-12-30T01:15:16.967Z,16.40
2018-12-30T01:17:45.668Z,13.43
2018-12-30T01:20:14.561Z,13.73
2018-12-30T01:22:43.145Z,16.13
2018-12-30T01:25:11.861Z,18.70
2018-12-30T01:27:40.456Z,19.37
2018-12-30T01:30:09.211Z,19.03
2018-12-30T01:32:37.792Z,17.23
2018-12-30T01:35:06.585Z,15.37
2018-12-30T01:37:35.230Z,16.80
2018-12-30T01:40:04.397Z,20.67
2018-12-30T01:42:32.974Z,13.47
2018-12-30T01:45:01.558Z,20.57
2018-12-30T01:47:30.181Z,17.83
2018-12-30T01:49:58.761Z,18.27
2018-12-30T01:52:27.402Z,15.77
2018-12-30T01:54:56.018Z,17.80
2018-12-30T01:57:24.593Z,15.93
2018-12-30T01:59:53.605Z,15.20
2018-12-30T02:02:22.256Z,16.13
2018-12-30T02:04:50.905Z,17.50
2018-12-30T02:07:19.542Z,16.50
2018-12-30T02:09:48.115Z,15.10
2018-12-30T02:12:16.818Z,16.87
2018-12-30T02:14:45.397Z,15.93
2018-12-30T02:17:14.033Z,21.03
2018-12-30T02:19:42.649Z,18.93
2018-12-30T02:22:11.305Z,13.43
2018-12-30T02:24:39.921Z,17.97
2018-12-30T02:27:08.520Z,13.20
2018-12-30T02:29:37.209Z,16.90
2018-12-30T02:32:05.897Z,14.70
2018-12-30T02:34:34.594Z,16.10
2018-12-30T02:37:03.233Z,14.53
2018-12-30T02:39:31.810Z,15.90
2018-12-30T02:42:00.519Z,15.87
2018-12-30T02:44:29.141Z,13.43
2018-12-30T02:46:57.794Z,16.43
2018-12-30T02:49:26.473Z,21.10
2018-12-30T02:51:55.144Z,13.53
2018-12-30T02:54:23.717Z,14.23
2018-12-30T02:56:52.338Z,15.63
2018-12-30T02:59:20.934Z,16.53
2018-12-30T03:01:49.714Z,16.80
2018-12-30T03:04:18.358Z,13.80
2018-12-30T03:06:46.991Z,16.67
2018-12-30T03:09:15.585Z,13.73
2018-12-30T03:11:44.211Z,14.27
2018-12-30T03:14:12.808Z,15.00
2018-12-30T03:16:41.589Z,15.63
2018-12-30T03:19:10.232Z,19.40
2018-12-30T03:21:38.879Z,20.37
2018-12-30T03:24:07.515Z,19.03
2018-12-30T03:26:36.221Z,15.37
2018-12-30T03:29:04.780Z,14.57
2018-12-30T03:31:33.418Z,14.13
2018-12-30T03:34:02.064Z,10.97
2018-12-30T03:36:30.738Z,21.10
2018-12-30T03:38:59.346Z,18.57
2018-12-30T03:41:28.098Z,16.13
2018-12-30T03:43:56.682Z,15.33
2018-12-30T03:46:25.251Z,15.70
2018-12-30T03:48:53.933Z,15.77
2018-12-30T03:51:22.504Z,15.93
2018-12-30T03:53:51.160Z,13.73
2018-12-30T03:56:19.738Z,11.77
2018-12-30T03:58:48.310Z,13.33
2018-12-30T04:01:17.063Z,13.30
2018-12-30T04:03:45.827Z,14.17
2018-12-30T04:06:14.509Z,10.30
2018-12-30T04:08:43.109Z,11.97
2018-12-30T04:11:11.820Z,11.30
2018-12-30T04:13:40.614Z,14.50
2018-12-30T04:16:09.341Z,15.90
2018-12-30T04:18:38.012Z,14.03
2018-12-30T04:21:06.628Z,12.83
2018-12-30T04:23:35.301Z,14.93
2018-12-30T04:26:03.903Z,14.93
2018-12-30T04:28:32.599Z,16.43
2018-12-30T04:31:01.171Z,13.83
2018-12-30T04:33:29.866Z,14.97
2018-12-30T04:35:58.430Z,19.30
2018-12-30T04:38:27.111Z,17.40
2018-12-30T04:40:55.693Z,14.30
2018-12-30T04:43:24.273Z,18.50
2018-12-30T04:45:52.921Z,12.97
2018-12-30T04:48:21.595Z,17.73
2018-12-30T04:50:50.194Z,12.20
2018-12-30T04:53:18.847Z,17.07
2018-12-30T04:55:47.419Z,14.57
2018-12-30T04:58:15.998Z,17.67
2018-12-30T05:00:45.008Z,18.17
2018-12-30T05:03:13.646Z,16.80
2018-12-30T05:05:42.241Z,21.60
2018-12-30T05:08:10.950Z,17.50
2018-12-30T05:10:39.609Z,15.60
2018-12-30T05:13:08.281Z,12.00
2018-12-30T05:15:36.866Z,14.70
2018-12-30T05:18:05.511Z,19.20
2018-12-30T05:20:34.214Z,13.50
2018-12-30T05:23:02.789Z,11.63
2018-12-30T05:25:31.440Z,19.80
2018-12-30T05:28:00.103Z,12.70
2018-12-30T05:30:28.687Z,14.93
2018-12-30T05:32:57.302Z,15.40
2018-12-30T05:35:25.937Z,21.10
2018-12-30T05:37:54.512Z,17.77
2018-12-30T05:40:23.199Z,15.30
2018-12-30T05:42:51.801Z,16.40
2018-12-30T05:45:20.498Z,15.23
2018-12-30T05:47:49.136Z,15.87
2018-12-30T05:50:17.801Z,15.57
2018-12-30T05:52:46.429Z,14.50
2018-12-30T05:55:15.066Z,17.63
2018-12-30T05:57:43.700Z,14.63
2018-12-30T06:00:12.448Z,13.73
2018-12-30T06:02:41.021Z,14.47
2018-12-30T06:05:09.664Z,15.10
2018-12-30T06:07:38.290Z,16.40
2018-12-30T06:10:07.047Z,17.13
2018-12-30T06:12:35.669Z,13.63
2018-12-30T06:15:05.738Z,16.60
2018-12-30T06:17:34.414Z,13.10
2018-12-30T06:20:03.293Z,14.13
2018-12-30T06:22:31.889Z,14.60
2018-12-30T06:25:00.513Z,16.50
2018-12-30T06:27:29.095Z,17.37
2018-12-30T06:29:57.734Z,16.47
2018-12-30T06:32:26.300Z,14.57
2018-12-30T06:34:54.920Z,14.37
2018-12-30T06:37:23.625Z,12.50
2018-12-30T06:39:52.247Z,13.23
2018-12-30T06:42:20.825Z,17.33
2018-12-30T06:44:49.414Z,16.13
2018-12-30T06:47:18.051Z,13.50
2018-12-30T06:49:46.737Z,16.33
2018-12-30T06:52:15.359Z,21.47
2018-12-30T06:54:43.941Z,18.00
2018-12-30T06:57:12.578Z,17.27
2018-12-30T06:59:41.239Z,16.20
2018-12-30T07:02:09.813Z,14.90
2018-12-30T07:04:38.428Z,16.97
2018-12-30T07:07:07.099Z,16.07
2018-12-30T07:09:35.807Z,19.17
2018-12-30T07:12:04.550Z,14.13
2018-12-30T07:14:33.122Z,17.70
2018-12-30T07:17:01.813Z,15.30
2018-12-30T07:19:30.458Z,13.17
2018-12-30T07:21:59.025Z,16.50
2018-12-30T07:24:27.657Z,13.30
2018-12-30T07:26:56.293Z,15.37
2018-12-30T07:29:24.956Z,15.20
2018-12-30T07:31:53.668Z,12.53
2018-12-30T07:34:22.285Z,13.63
2018-12-30T07:36:50.866Z,14.17
2018-12-30T07:39:19.496Z,14.30
2018-12-30T07:41:48.076Z,22.20
2018-12-30T07:44:16.766Z,21.90
2018-12-30T07:46:45.389Z,16.80
2018-12-30T07:49:13.989Z,17.50
2018-12-30T07:51:42.626Z,16.37
2018-12-30T07:54:11.201Z,15.07
2018-12-30T07:56:39.840Z,19.33
2018-12-30T07:59:08.468Z,14.47
2018-12-30T08:01:37.081Z,13.43
2018-12-30T08:04:08.587Z,21.87
2018-12-30T08:06:37.359Z,14.10
2018-12-30T08:09:07.379Z,17.47
2018-12-30T08:11:36.077Z,16.47
2018-12-30T08:14:04.793Z,17.57
2018-12-30T08:16:33.438Z,14.30
2018-12-30T08:19:02.116Z,12.30
2018-12-30T08:21:30.698Z,16.23
2018-12-30T08:23:59.389Z,13.87
2018-12-30T08:26:27.969Z,13.57
2018-12-30T08:28:56.598Z,17.13
2018-12-30T08:31:25.429Z,15.60
2018-12-30T08:33:54.052Z,12.87
2018-12-30T08:36:22.620Z,13.50
2018-12-30T08:38:51.403Z,12.80
2018-12-30T08:41:19.980Z,13.97
2018-12-30T08:43:48.598Z,18.60
2018-12-30T08:46:17.214Z,18.10
2018-12-30T08:48:45.789Z,13.13
2018-12-30T08:51:14.473Z,12.87
2018-12-30T08:53:43.069Z,15.70
2018-12-30T08:56:11.721Z,12.83
2018-12-30T08:58:40.297Z,11.80
2018-12-30T09:01:08.925Z,12.50
2018-12-30T09:03:37.502Z,14.17
2018-12-30T09:08:41.508Z,13.97
2018-12-30T09:11:10.498Z,14.73
2018-12-30T09:13:39.101Z,15.73
2018-12-30T09:16:07.677Z,13.20
2018-12-30T09:18:36.306Z,11.73
2018-12-30T09:21:05.303Z,10.20
2018-12-30T09:23:37.591Z,11.73
2018-12-30T09:26:04.305Z,14.20
2018-12-30T09:28:32.879Z,14.47
2018-12-30T09:31:01.493Z,9.47
2018-12-30T09:33:30.077Z,9.83
2018-12-30T09:35:58.696Z,10.30
2018-12-30T09:38:27.326Z,9.87
2018-12-30T09:40:55.939Z,10.97
2018-12-30T09:43:24.552Z,9.90
2018-12-30T09:45:53.206Z,10.63
2018-12-30T09:48:21.890Z,14.87
2018-12-30T09:50:50.532Z,7.70
2018-12-30T09:53:19.208Z,15.83
2018-12-30T09:55:47.785Z,8.47
2018-12-30T09:58:16.409Z,10.53
2018-12-30T10:00:44.986Z,9.27
2018-12-30T10:03:13.574Z,11.67
2018-12-30T10:05:42.352Z,12.73
2018-12-30T10:08:11.060Z,10.57
2018-12-30T10:10:39.635Z,12.37
2018-12-30T10:13:08.430Z,11.77
2018-12-30T10:15:37.010Z,10.50
2018-12-30T10:18:05.574Z,11.57
2018-12-30T10:20:34.252Z,9.80
2018-12-30T10:23:02.828Z,11.83
2018-12-30T10:25:31.451Z,10.70
2018-12-30T10:28:00.099Z,12.90
2018-12-30T10:30:28.722Z,10.43
2018-12-30T10:32:57.393Z,7.73
2018-12-30T10:35:26.174Z,10.17
2018-12-30T10:37:54.766Z,11.10
2018-12-30T10:40:23.404Z,9.57
2018-12-30T10:42:56.495Z,6.67
2018-12-30T10:45:25.135Z,11.23
2018-12-30T10:47:57.027Z,12.37
2018-12-30T10:50:25.715Z,11.73
2018-12-30T10:52:54.311Z,9.70
2018-12-30T10:55:22.928Z,7.83
2018-12-30T10:57:51.521Z,11.00
2018-12-30T11:00:20.285Z,7.77
2018-12-30T11:02:48.855Z,9.37
2018-12-30T11:05:17.507Z,11.67
2018-12-30T11:07:46.133Z,11.57
2018-12-30T11:10:14.795Z,9.90
2018-12-30T11:12:43.377Z,7.53
2018-12-30T11:15:18.060Z,8.03
2018-12-30T11:17:46.800Z,13.23
2018-12-30T11:20:20.918Z,13.77
2018-12-30T11:22:49.486Z,8.77
2018-12-30T11:25:30.124Z,7.97
2018-12-30T11:27:58.817Z,9.80
2018-12-30T11:30:27.556Z,9.07
2018-12-30T11:32:56.146Z,14.03
2018-12-30T11:35:25.048Z,12.33
2018-12-30T11:37:53.691Z,6.63
2018-12-30T11:40:22.359Z,12.27
2018-12-30T11:42:50.959Z,8.17
2018-12-30T11:45:19.611Z,8.10
2018-12-30T11:47:48.320Z,12.00
2018-12-30T11:50:17.009Z,9.67
2018-12-30T11:52:45.616Z,9.30
2018-12-30T11:55:14.205Z,9.27
2018-12-30T11:57:42.792Z,9.73
2018-12-30T12:00:11.504Z,8.73
2018-12-30T12:02:40.113Z,8.50
2018-12-30T12:05:08.834Z,9.73
2018-12-30T12:07:37.480Z,8.30
2018-12-30T12:10:06.479Z,10.37
2018-12-30T12:12:35.679Z,8.57
2018-12-30T12:15:06.767Z,12.60
2018-12-30T12:17:35.414Z,11.30
2018-12-30T12:20:05.193Z,7.70
2018-12-30T12:22:33.916Z,10.10
2018-12-30T12:25:02.533Z,10.07
2018-12-30T12:27:31.269Z,12.00
2018-12-30T12:30:00.085Z,13.77
2018-12-30T12:32:28.861Z,13.23
2018-12-30T12:34:57.524Z,9.73
2018-12-30T12:37:27.120Z,11.13
2018-12-30T12:39:55.805Z,12.97
2018-12-30T12:42:24.424Z,10.23
2018-12-30T12:44:53.038Z,11.77
2018-12-30T12:47:21.617Z,7.67
2018-12-30T12:49:50.300Z,9.67
2018-12-30T12:52:19.061Z,8.60
2018-12-30T12:54:50.786Z,10.73
2018-12-30T12:57:19.462Z,11.23
2018-12-30T12:59:48.169Z,8.97
2018-12-30T13:02:16.793Z,11.17
2018-12-30T13:04:45.428Z,13.17
2018-12-30T13:07:14.033Z,11.27
2018-12-30T13:09:42.597Z,13.57
2018-12-30T13:12:11.214Z,10.37
2018-12-30T13:14:39.800Z,9.33
2018-12-30T13:17:08.418Z,13.03
2018-12-30T13:19:37.054Z,11.60
2018-12-30T13:22:05.724Z,7.37
2018-12-30T13:24:39.922Z,15.60
2018-12-30T13:27:04.813Z,13.67
2018-12-30T13:29:33.530Z,12.93
2018-12-30T13:32:02.279Z,13.90
2018-12-30T13:34:30.939Z,12.53
2018-12-30T13:36:59.645Z,7.77
2018-12-30T13:39:28.329Z,12.77
2018-12-30T13:41:56.906Z,11.03
2018-12-30T13:44:25.616Z,10.67
2018-12-30T13:46:54.262Z,16.17
2018-12-30T13:49:22.945Z,12.40
2018-12-30T13:51:53.183Z,13.63
2018-12-30T13:54:22.049Z,9.70
2018-12-30T13:56:50.736Z,10.03
2018-12-30T13:59:19.448Z,7.83
2018-12-30T14:01:48.099Z,10.70
2018-12-30T14:04:16.717Z,16.47
2018-12-30T14:06:45.428Z,14.57
2018-12-30T14:09:14.047Z,11.27
2018-12-30T14:11:42.687Z,12.80
2018-12-30T14:14:11.396Z,11.87
2018-12-30T14:16:40.031Z,13.77
2018-12-30T14:19:08.717Z,10.77
2018-12-30T14:21:37.298Z,12.13
2018-12-30T14:24:05.939Z,12.17
2018-12-30T14:29:04.694Z,11.40
2018-12-30T14:31:33.330Z,9.30
2018-12-30T14:34:02.030Z,17.27
2018-12-30T14:36:30.676Z,10.50
2018-12-30T14:38:59.294Z,9.33
2018-12-30T14:41:27.949Z,15.27
2018-12-30T14:43:56.654Z,8.80
2018-12-30T14:46:33.610Z,12.10
2018-12-30T14:48:55.600Z,11.90
2018-12-30T14:51:24.182Z,8.83
2018-12-30T14:53:52.779Z,12.37
2018-12-30T14:56:21.488Z,11.33
2018-12-30T14:58:50.136Z,11.20
2018-12-30T15:01:18.848Z,14.63
2018-12-30T15:03:47.495Z,12.70
2018-12-30T15:08:41.969Z,10.67
2018-12-30T15:11:10.605Z,8.47
2018-12-30T15:13:39.246Z,7.07
2018-12-30T15:16:07.905Z,12.40
2018-12-30T15:18:36.508Z,9.93
2018-12-30T15:21:05.226Z,10.67
2018-12-30T15:23:33.839Z,13.10
2018-12-30T15:26:02.657Z,10.37
2018-12-30T15:28:31.338Z,12.53
2018-12-30T15:30:59.987Z,12.87
2018-12-30T15:33:28.677Z,9.07
2018-12-30T15:35:58.325Z,10.33
2018-12-30T15:38:26.963Z,12.17
2018-12-30T15:40:55.688Z,11.93
2018-12-30T15:43:24.578Z,10.17
2018-12-30T15:45:53.159Z,14.90
2018-12-30T15:48:21.962Z,14.13
2018-12-30T15:50:50.589Z,13.40
2018-12-30T15:53:19.211Z,10.83
2018-12-30T15:55:47.885Z,9.77
2018-12-30T15:58:16.575Z,12.00
2018-12-30T16:00:45.276Z,11.20
2018-12-30T16:03:13.855Z,11.17
2018-12-30T16:05:42.523Z,9.87
2018-12-30T16:08:11.161Z,12.17
2018-12-30T16:10:39.811Z,12.20
2018-12-30T16:13:08.528Z,12.13
2018-12-30T16:15:37.162Z,15.23
2018-12-30T16:18:05.878Z,14.60
2018-12-30T16:20:36.517Z,18.33
2018-12-30T16:23:05.288Z,11.70
2018-12-30T16:25:33.888Z,13.10
2018-12-30T16:28:02.576Z,13.63
2018-12-30T16:30:32.240Z,12.63
2018-12-30T16:33:00.859Z,18.17
2018-12-30T16:35:29.452Z,17.73
2018-12-30T16:37:58.060Z,22.87
2018-12-30T16:40:26.720Z,21.70
2018-12-30T16:42:58.965Z,25.20
2018-12-30T16:45:28.597Z,24.77
2018-12-30T16:47:57.225Z,23.13
2018-12-30T16:50:25.872Z,24.50
2018-12-30T16:52:54.569Z,25.30
2018-12-30T16:55:25.140Z,24.90
2018-12-30T16:57:53.774Z,29.23
2018-12-30T17:00:22.467Z,26.37
2018-12-30T17:02:51.054Z,28.00
2018-12-30T17:05:19.674Z,29.77
2018-12-30T17:07:48.378Z,28.93
2018-12-30T17:10:17.913Z,30.77
2018-12-30T17:12:46.664Z,30.70
2018-12-30T17:15:15.316Z,31.70
2018-12-30T17:17:43.952Z,33.80
2018-12-30T17:20:12.605Z,32.30
2018-12-30T17:22:41.249Z,31.13
2018-12-30T17:25:09.944Z,33.90
2018-12-30T17:27:38.521Z,30.07
2018-12-30T17:30:09.577Z,35.90
2018-12-30T17:32:38.154Z,35.50
2018-12-30T17:35:06.797Z,33.97
2018-12-30T17:37:35.509Z,32.27
2018-12-30T17:40:04.929Z,31.93
2018-12-30T17:42:33.604Z,33.43
2018-12-30T17:45:02.222Z,31.60
2018-12-30T17:47:30.805Z,31.30
2018-12-30T17:49:59.425Z,30.50
2018-12-30T17:52:28.079Z,32.90
2018-12-30T17:54:56.775Z,35.30
2018-12-30T17:57:25.348Z,31.20
2018-12-30T17:59:53.985Z,37.27
2018-12-30T18:02:22.737Z,32.10
2018-12-30T18:04:51.389Z,31.97
2018-12-30T18:07:20.110Z,32.33
2018-12-30T18:09:48.717Z,34.77
2018-12-30T18:12:17.298Z,29.23
2018-12-30T18:14:45.977Z,30.63
2018-12-30T18:17:14.627Z,31.03
2018-12-30T18:19:43.424Z,32.10
2018-12-30T18:22:12.065Z,32.00
2018-12-30T18:24:40.693Z,31.30
2018-12-30T18:27:09.273Z,35.23
2018-12-30T18:29:38.060Z,31.30
2018-12-30T18:32:06.677Z,37.60
2018-12-30T18:34:35.443Z,33.40
2018-12-30T18:37:04.228Z,33.43
2018-12-30T18:39:32.842Z,32.97
2018-12-30T18:42:01.479Z,31.50
2018-12-30T18:44:30.113Z,37.03
2018-12-30T18:46:58.686Z,35.00
2018-12-30T18:49:27.374Z,34.73
2018-12-30T18:51:56.002Z,33.73
2018-12-30T18:54:24.739Z,34.03
2018-12-30T18:56:53.489Z,36.20
2018-12-30T18:59:22.092Z,32.00
2018-12-30T19:01:50.741Z,33.73
2018-12-30T19:04:19.355Z,30.80
2018-12-30T19:06:47.973Z,29.50
2018-12-30T19:09:16.636Z,28.83
2018-12-30T19:11:45.336Z,30.97
2018-12-30T19:14:13.917Z,29.50
2018-12-30T19:16:43.762Z,32.63
2018-12-30T19:19:12.451Z,33.53
2018-12-30T19:21:41.028Z,31.97
2018-12-30T19:24:09.720Z,34.03
2018-12-30T19:26:38.357Z,32.60
2018-12-30T19:29:07.083Z,33.63
2018-12-30T19:31:35.796Z,30.43
2018-12-30T19:34:04.671Z,31.47
2018-12-30T19:36:34.221Z,33.17
2018-12-30T19:39:02.800Z,31.10
2018-12-30T19:41:31.446Z,32.67
2018-12-30T19:44:00.096Z,30.23
2018-12-30T19:46:28.706Z,29.00
2018-12-30T19:48:57.276Z,31.10
2018-12-30T19:51:25.897Z,30.33
2018-12-30T19:53:54.481Z,32.00
2018-12-30T19:56:23.135Z,31.77
2018-12-30T19:58:51.812Z,32.10
2018-12-30T20:01:20.567Z,32.60
2018-12-30T20:03:49.188Z,31.67
2018-12-30T20:06:17.809Z,32.37
2018-12-30T20:08:46.383Z,32.80
2018-12-30T20:11:15.172Z,31.93
2018-12-30T20:13:43.760Z,32.33
2018-12-30T20:16:12.359Z,31.13
2018-12-30T20:18:41.061Z,34.07
2018-12-30T20:21:09.657Z,34.93
2018-12-30T20:23:38.269Z,36.97
2018-12-30T20:26:06.845Z,35.87
2018-12-30T20:28:35.458Z,35.10
2018-12-30T20:31:05.153Z,34.80
2018-12-30T20:33:33.826Z,36.83
2018-12-30T20:36:02.851Z,34.97
2018-12-30T20:38:31.420Z,39.07
2018-12-30T20:41:00.107Z,38.83
2018-12-30T20:43:28.681Z,39.87
2018-12-30T20:45:57.372Z,40.17
2018-12-30T20:48:26.025Z,42.37
2018-12-30T20:50:54.716Z,39.33
2018-12-30T20:53:23.301Z,39.30
2018-12-30T20:55:52.025Z,40.33
2018-12-30T20:58:20.605Z,43.23
2018-12-30T21:00:49.227Z,41.93
2018-12-30T21:03:17.805Z,44.10
2018-12-30T21:05:46.437Z,45.53
2018-12-30T21:08:15.203Z,41.87
2018-12-30T21:10:44.102Z,41.87
2018-12-30T21:13:13.215Z,47.77
2018-12-30T21:15:41.800Z,44.50
2018-12-30T21:18:10.879Z,40.60
2018-12-30T21:20:39.684Z,39.80
2018-12-30T21:23:08.388Z,41.30
2018-12-30T21:25:37.141Z,41.40
2018-12-30T21:28:05.826Z,42.97
2018-12-30T21:30:34.470Z,38.63
2018-12-30T21:33:03.304Z,45.63
2018-12-30T21:35:31.914Z,44.40
2018-12-30T21:38:00.585Z,43.87
2018-12-30T21:40:29.352Z,44.30
2018-12-30T21:42:57.997Z,48.20
2018-12-30T21:45:26.643Z,47.50
2018-12-30T21:47:55.350Z,46.57
2018-12-30T21:50:24.000Z,45.67
2018-12-30T21:52:52.673Z,47.70
2018-12-30T21:55:21.357Z,46.93
2018-12-30T21:57:49.936Z,46.57
2018-12-30T22:00:18.710Z,40.83
2018-12-30T22:02:47.383Z,45.27
2018-12-30T22:05:15.956Z,44.00
2018-12-30T22:07:44.605Z,43.77
2018-12-30T22:10:17.258Z,41.50
2018-12-30T22:12:43.627Z,40.70
2018-12-30T22:15:12.342Z,37.33
2018-12-30T22:17:40.928Z,38.13
2018-12-30T22:20:09.606Z,34.77
2018-12-30T22:22:38.201Z,35.63
2018-12-30T22:25:06.950Z,32.90
2018-12-30T22:27:35.680Z,35.10
2018-12-30T22:30:05.400Z,35.23
2018-12-30T22:32:34.051Z,35.80
2018-12-30T22:35:02.773Z,33.40
2018-12-30T22:37:31.358Z,30.30
2018-12-30T22:39:59.969Z,28.90
2018-12-30T22:42:32.697Z,28.40
2018-12-30T22:44:58.924Z,27.13
2018-12-30T22:47:27.587Z,27.50
2018-12-30T22:49:56.227Z,25.70
2018-12-30T22:52:24.843Z,29.00
2018-12-30T22:54:53.544Z,28.20
2018-12-30T22:57:22.228Z,24.90
2018-12-30T22:59:50.852Z,27.43
2018-12-30T23:02:19.493Z,22.87
2018-12-30T23:04:48.120Z,27.10
2018-12-30T23:07:16.746Z,25.50
2018-12-30T23:09:45.315Z,25.73
2018-12-30T23:12:14.072Z,24.17
2018-12-30T23:14:42.833Z,23.40
2018-12-30T23:17:11.825Z,22.50
2018-12-30T23:19:40.493Z,23.27
2018-12-30T23:22:09.093Z,21.97
2018-12-30T23:24:37.732Z,20.53
2018-12-30T23:27:06.407Z,23.13
2018-12-30T23:29:35.120Z,20.60
2018-12-30T23:32:03.784Z,21.63
2018-12-30T23:34:32.433Z,23.57
2018-12-30T23:37:01.077Z,21.50
2018-12-30T23:39:29.657Z,22.70
2018-12-30T23:41:58.451Z,21.00
2018-12-30T23:44:27.135Z,22.13
2018-12-30T23:46:55.725Z,20.53
2018-12-30T23:49:24.357Z,20.03
2018-12-30T23:51:52.978Z,21.80
2018-12-30T23:54:21.630Z,21.70
2018-12-30T23:56:50.508Z,20.73
2018-12-30T23:59:19.261Z,23.47
